createdAt,value
2019-05-26T00:01:47.965Z,94099.90
2019-05-26T00:04:16.795Z,94096.00
2019-05-26T00:06:45.519Z,94094.70
2019-05-26T00:09:14.272Z,94092.91
2019-05-26T00:11:42.966Z,94101.37
2019-05-26T00:14:11.751Z,94094.87
2019-05-26T00:16:40.438Z,94088.92
2019-05-26T00:19:09.221Z,94091.77
2019-05-26T00:21:39.243Z,94091.69
2019-05-26T00:24:07.929Z,94093.53
2019-05-26T00:26:36.609Z,94096.05
2019-05-26T00:29:05.240Z,94092.94
2019-05-26T00:31:33.992Z,94093.31
2019-05-26T00:34:02.628Z,94099.47
2019-05-26T00:36:31.360Z,94098.16
2019-05-26T00:39:00.029Z,94095.18
2019-05-26T00:41:28.769Z,94096.20
2019-05-26T00:43:57.519Z,94101.41
2019-05-26T00:46:26.202Z,94110.65
2019-05-26T00:48:55.607Z,94102.96
2019-05-26T00:51:24.297Z,94103.78
2019-05-26T00:53:52.987Z,94110.16
2019-05-26T00:56:21.790Z,94101.55
2019-05-26T00:58:50.469Z,94097.91
2019-05-26T01:01:19.244Z,94094.56
2019-05-26T01:03:48.649Z,94095.75
2019-05-26T01:06:17.341Z,94096.13
2019-05-26T01:08:46.050Z,94099.09
2019-05-26T01:11:14.806Z,94102.53
2019-05-26T01:13:43.493Z,94097.70
2019-05-26T01:16:12.179Z,94095.09
2019-05-26T01:18:41.006Z,94097.20
2019-05-26T01:21:10.169Z,94096.38
2019-05-26T01:23:39.070Z,94095.33
2019-05-26T01:26:07.748Z,94095.13
2019-05-26T01:28:36.537Z,94100.05
2019-05-26T01:31:05.238Z,94103.31
2019-05-26T01:33:33.908Z,94102.81
2019-05-26T01:36:02.707Z,94109.50
2019-05-26T01:38:31.699Z,94107.41
2019-05-26T01:41:00.380Z,94103.48
2019-05-26T01:43:29.088Z,94115.63
2019-05-26T01:45:57.967Z,94116.02
2019-05-26T01:48:26.644Z,94113.25
2019-05-26T01:50:55.274Z,94116.21
2019-05-26T01:53:24.018Z,94109.10
2019-05-26T01:55:54.183Z,94107.52
2019-05-26T01:58:22.924Z,94111.97
2019-05-26T02:00:51.726Z,94119.09
2019-05-26T02:03:20.502Z,94121.13
2019-05-26T02:05:49.205Z,94126.22
2019-05-26T02:08:19.929Z,94125.55
2019-05-26T02:10:48.736Z,94125.27
2019-05-26T02:13:17.399Z,94123.16
2019-05-26T02:15:46.205Z,94123.89
2019-05-26T02:18:14.882Z,94128.08
2019-05-26T02:20:43.663Z,94125.88
2019-05-26T02:23:12.350Z,94125.48
2019-05-26T02:25:42.063Z,94131.05
2019-05-26T02:28:10.748Z,94128.39
2019-05-26T02:30:39.453Z,94128.87
2019-05-26T02:33:08.231Z,94126.39
2019-05-26T02:35:36.914Z,94123.89
2019-05-26T02:38:05.805Z,94128.70
2019-05-26T02:40:34.522Z,94126.16
2019-05-26T02:43:03.276Z,94127.56
2019-05-26T02:45:31.993Z,94127.05
2019-05-26T02:48:02.505Z,94130.55
2019-05-26T02:50:31.180Z,94127.13
2019-05-26T02:52:59.861Z,94129.95
2019-05-26T02:55:28.680Z,94134.08
2019-05-26T02:57:57.339Z,94139.81
2019-05-26T03:00:41.189Z,94143.09
2019-05-26T03:03:10.211Z,94142.34
2019-05-26T03:05:40.022Z,94143.05
2019-05-26T03:08:09.188Z,94139.00
2019-05-26T03:10:38.283Z,94139.80
2019-05-26T03:13:07.131Z,94145.41
2019-05-26T03:15:36.577Z,94141.80
2019-05-26T03:18:07.220Z,94151.86
2019-05-26T03:20:42.042Z,94146.59
2019-05-26T03:23:11.147Z,94153.66
2019-05-26T03:25:40.645Z,94158.41
2019-05-26T03:28:09.525Z,94152.13
2019-05-26T03:30:38.369Z,94157.59
2019-05-26T03:33:07.900Z,94154.89
2019-05-26T03:35:36.848Z,94161.02
2019-05-26T03:38:05.514Z,94162.59
2019-05-26T03:40:34.203Z,94161.84
2019-05-26T03:43:02.911Z,94160.15
2019-05-26T03:45:43.657Z,94160.77
2019-05-26T03:48:16.324Z,94162.44
2019-05-26T03:50:45.025Z,94167.44
2019-05-26T03:53:16.776Z,94166.75
2019-05-26T03:55:45.483Z,94175.22
2019-05-26T03:58:14.256Z,94175.69
2019-05-26T04:00:42.970Z,94178.88
2019-05-26T04:03:11.625Z,94182.99
2019-05-26T04:05:40.316Z,94184.14
2019-05-26T04:08:09.097Z,94185.26
2019-05-26T04:10:37.786Z,94188.21
2019-05-26T04:13:06.696Z,94190.29
2019-05-26T04:15:35.467Z,94192.98
2019-05-26T04:18:04.367Z,94191.30
2019-05-26T04:20:33.557Z,94194.72
2019-05-26T04:23:02.196Z,94197.52
2019-05-26T04:25:30.927Z,94204.52
2019-05-26T04:27:59.629Z,94201.93
2019-05-26T04:30:28.309Z,94192.31
2019-05-26T04:32:57.005Z,94191.80
2019-05-26T04:35:25.677Z,94187.88
2019-05-26T04:37:54.405Z,94187.05
2019-05-26T04:40:27.337Z,94185.63
2019-05-26T04:42:53.475Z,94186.25
2019-05-26T04:45:22.279Z,94183.19
2019-05-26T04:47:50.951Z,94186.80
2019-05-26T04:50:19.847Z,94184.30
2019-05-26T04:53:05.211Z,94187.25
2019-05-26T04:55:18.956Z,94186.44
2019-05-26T04:57:47.588Z,94195.61
2019-05-26T05:00:18.076Z,94197.68
2019-05-26T05:02:46.857Z,94194.14
2019-05-26T05:05:15.572Z,94198.36
2019-05-26T05:07:44.541Z,94209.45
2019-05-26T05:10:13.232Z,94200.73
2019-05-26T05:12:41.921Z,94209.94
2019-05-26T05:15:10.904Z,94206.52
2019-05-26T05:17:39.600Z,94206.69
2019-05-26T05:20:08.685Z,94207.87
2019-05-26T05:22:37.486Z,94201.70
2019-05-26T05:25:14.647Z,94208.37
2019-05-26T05:27:39.677Z,94212.23
2019-05-26T05:30:08.736Z,94211.89
2019-05-26T05:32:37.457Z,94215.16
2019-05-26T05:35:09.820Z,94209.07
2019-05-26T05:37:38.507Z,94210.97
2019-05-26T05:40:08.525Z,94216.66
2019-05-26T05:42:37.990Z,94205.81
2019-05-26T05:45:08.446Z,94211.06
2019-05-26T05:47:37.390Z,94213.05
2019-05-26T05:50:09.104Z,94208.34
2019-05-26T05:52:38.184Z,94207.33
2019-05-26T05:55:07.630Z,94207.94
2019-05-26T05:57:36.398Z,94205.44
2019-05-26T06:00:09.425Z,94212.09
2019-05-26T06:02:38.290Z,94209.48
2019-05-26T06:05:11.593Z,94209.96
2019-05-26T06:07:40.484Z,94202.70
2019-05-26T06:10:09.894Z,94204.83
2019-05-26T06:12:38.654Z,94201.13
2019-05-26T06:15:15.975Z,94201.45
2019-05-26T06:17:44.959Z,94201.01
2019-05-26T06:20:14.385Z,94205.53
2019-05-26T06:22:43.041Z,94205.19
2019-05-26T06:25:12.848Z,94201.15
2019-05-26T06:27:43.796Z,94195.63
2019-05-26T06:30:14.867Z,94195.63
2019-05-26T06:32:46.163Z,94200.15
2019-05-26T06:35:17.189Z,94197.91
2019-05-26T06:37:46.751Z,94197.45
2019-05-26T06:40:15.691Z,94196.98
2019-05-26T06:42:45.011Z,94198.08
2019-05-26T06:45:14.670Z,94199.04
2019-05-26T06:47:43.492Z,94191.33
2019-05-26T06:50:12.820Z,94197.51
2019-05-26T06:52:41.738Z,94198.38
2019-05-26T06:55:10.996Z,94194.88
2019-05-26T06:57:39.688Z,94198.31
2019-05-26T07:00:09.199Z,94198.50
2019-05-26T07:02:38.905Z,94193.91
2019-05-26T07:05:08.206Z,94193.17
2019-05-26T07:07:36.998Z,94181.19
2019-05-26T07:10:07.083Z,94184.53
2019-05-26T07:12:35.978Z,94185.00
2019-05-26T07:15:06.674Z,94182.70
2019-05-26T07:17:37.169Z,94178.25
2019-05-26T07:20:07.170Z,94174.55
2019-05-26T07:22:36.841Z,94167.78
2019-05-26T07:25:08.877Z,94178.61
2019-05-26T07:27:37.643Z,94176.36
2019-05-26T07:30:09.458Z,94177.93
2019-05-26T07:32:39.846Z,94173.87
2019-05-26T07:35:11.917Z,94179.27
2019-05-26T07:37:41.076Z,94177.99
2019-05-26T07:40:11.136Z,94180.66
2019-05-26T07:42:40.013Z,94184.02
2019-05-26T07:45:08.904Z,94180.13
2019-05-26T07:47:37.691Z,94169.87
2019-05-26T07:50:09.589Z,94166.47
2019-05-26T07:52:38.499Z,94158.03
2019-05-26T07:55:09.184Z,94162.45
2019-05-26T07:57:38.415Z,94155.77
2019-05-26T08:00:08.927Z,94153.96
2019-05-26T08:02:37.685Z,94161.92
2019-05-26T08:05:07.752Z,94161.03
2019-05-26T08:07:36.801Z,94161.01
2019-05-26T08:10:07.133Z,94155.68
2019-05-26T08:12:36.257Z,94153.88
2019-05-26T08:15:06.451Z,94150.73
2019-05-26T08:17:35.748Z,94148.59
2019-05-26T08:20:09.447Z,94148.77
2019-05-26T08:22:38.294Z,94146.13
2019-05-26T08:25:07.757Z,94133.98
2019-05-26T08:27:39.677Z,94133.88
2019-05-26T08:30:13.407Z,94137.42
2019-05-26T08:32:42.099Z,94135.21
2019-05-26T08:35:12.542Z,94128.47
2019-05-26T08:37:41.206Z,94124.44
2019-05-26T08:40:19.354Z,94121.48
2019-05-26T08:42:50.549Z,94126.28
2019-05-26T08:45:22.088Z,94117.55
2019-05-26T08:47:51.411Z,94110.09
2019-05-26T08:50:20.716Z,94110.31
2019-05-26T08:52:49.851Z,94104.95
2019-05-26T08:55:18.918Z,94110.55
2019-05-26T08:57:48.143Z,94105.62
2019-05-26T09:00:17.534Z,94093.55
2019-05-26T09:02:46.507Z,94097.72
2019-05-26T09:05:15.603Z,94093.86
2019-05-26T09:07:45.831Z,94090.53
2019-05-26T09:10:14.717Z,94090.04
2019-05-26T09:12:47.696Z,94091.11
2019-05-26T09:15:14.260Z,94090.12
2019-05-26T09:17:43.020Z,94084.19
2019-05-26T09:20:12.526Z,94080.61
2019-05-26T09:22:41.332Z,94076.41
2019-05-26T09:25:10.414Z,94076.11
2019-05-26T09:27:39.109Z,94074.05
2019-05-26T09:30:09.177Z,94074.25
2019-05-26T09:32:38.117Z,94060.11
2019-05-26T09:35:09.139Z,94057.80
2019-05-26T09:37:37.849Z,94056.18
2019-05-26T09:40:08.310Z,94052.23
2019-05-26T09:42:37.484Z,94045.58
2019-05-26T09:45:08.511Z,94044.45
2019-05-26T09:47:37.309Z,94041.23
2019-05-26T09:50:07.766Z,94030.25
2019-05-26T09:52:36.825Z,94032.53
2019-05-26T09:55:09.603Z,94030.35
2019-05-26T09:57:38.291Z,94029.41
2019-05-26T10:00:08.727Z,94021.17
2019-05-26T10:02:37.386Z,94018.09
2019-05-26T10:05:06.798Z,94018.14
2019-05-26T10:07:35.489Z,94016.39
2019-05-26T10:10:07.393Z,94015.06
2019-05-26T10:12:35.995Z,94012.89
2019-05-26T10:15:06.805Z,94013.25
2019-05-26T10:17:35.491Z,94011.69
2019-05-26T10:20:09.189Z,94014.11
2019-05-26T10:22:37.908Z,94002.71
2019-05-26T10:25:08.177Z,94006.78
2019-05-26T10:27:37.759Z,94007.28
2019-05-26T10:30:10.894Z,93996.45
2019-05-26T10:32:39.672Z,93994.77
2019-05-26T10:35:08.920Z,93992.94
2019-05-26T10:37:37.583Z,93992.02
2019-05-26T10:40:07.523Z,93984.34
2019-05-26T10:42:36.262Z,93984.53
2019-05-26T10:45:08.737Z,93975.72
2019-05-26T10:47:37.419Z,93973.61
2019-05-26T10:50:07.718Z,93966.38
2019-05-26T10:52:37.538Z,93964.92
2019-05-26T10:55:06.982Z,93960.01
2019-05-26T10:57:35.761Z,93956.20
2019-05-26T11:00:06.381Z,93942.29
2019-05-26T11:02:35.077Z,93948.01
2019-05-26T11:05:05.035Z,93946.71
2019-05-26T11:07:34.394Z,93941.75
2019-05-26T11:10:03.584Z,93942.77
2019-05-26T11:12:32.369Z,93943.02
2019-05-26T11:15:02.811Z,93940.08
2019-05-26T11:17:31.491Z,93938.84
2019-05-26T11:20:00.192Z,93929.52
2019-05-26T11:22:28.958Z,93922.09
2019-05-26T11:24:57.643Z,93922.09
2019-05-26T11:27:26.339Z,93925.66
2019-05-26T11:29:55.151Z,93918.89
2019-05-26T11:32:23.810Z,93912.16
2019-05-26T11:35:01.111Z,93915.56
2019-05-26T11:37:23.017Z,93910.84
2019-05-26T11:39:51.756Z,93909.91
2019-05-26T11:42:20.600Z,93905.67
2019-05-26T11:44:49.283Z,93910.12
2019-05-26T11:47:18.072Z,93909.48
2019-05-26T11:49:46.775Z,93893.50
2019-05-26T11:52:15.563Z,93891.11
2019-05-26T11:54:44.337Z,93887.58
2019-05-26T11:57:13.058Z,93893.67
2019-05-26T11:59:41.816Z,93882.58
2019-05-26T12:02:10.662Z,93879.48
2019-05-26T12:04:39.592Z,93879.98
2019-05-26T12:07:08.388Z,93885.27
2019-05-26T12:09:37.177Z,93880.05
2019-05-26T12:12:06.175Z,93869.53
2019-05-26T12:14:35.704Z,93874.92
2019-05-26T12:17:06.191Z,93868.28
2019-05-26T12:19:34.889Z,93860.21
2019-05-26T12:22:05.120Z,93864.75
2019-05-26T12:24:33.798Z,93860.17
2019-05-26T12:27:04.154Z,93863.03
2019-05-26T12:29:32.820Z,93862.55
2019-05-26T12:32:01.801Z,93851.94
2019-05-26T12:34:30.484Z,93851.59
2019-05-26T12:37:01.457Z,93856.78
2019-05-26T12:39:30.451Z,93846.56
2019-05-26T12:41:59.419Z,93848.67
2019-05-26T12:44:28.311Z,93853.08
2019-05-26T12:46:57.408Z,93862.97
2019-05-26T12:49:27.847Z,93858.75
2019-05-26T12:51:56.624Z,93856.52
2019-05-26T12:54:25.314Z,93848.72
2019-05-26T12:56:54.090Z,93855.72
2019-05-26T12:59:22.799Z,93849.45
2019-05-26T13:01:53.256Z,93845.44
2019-05-26T13:04:22.112Z,93843.93
2019-05-26T13:06:50.990Z,93837.31
2019-05-26T13:09:19.775Z,93836.89
2019-05-26T13:11:48.493Z,93836.63
2019-05-26T13:14:17.250Z,93837.77
2019-05-26T13:16:45.950Z,93826.65
2019-05-26T13:19:16.271Z,93833.66
2019-05-26T13:21:46.866Z,93830.67
2019-05-26T13:24:18.807Z,93833.47
2019-05-26T13:26:47.548Z,93835.86
2019-05-26T13:29:16.641Z,93828.11
2019-05-26T13:31:45.328Z,93828.73
2019-05-26T13:34:14.120Z,93829.05
2019-05-26T13:36:42.795Z,93827.77
2019-05-26T13:39:11.403Z,93823.06
2019-05-26T13:41:40.020Z,93814.25
2019-05-26T13:44:08.710Z,93814.66
2019-05-26T13:46:37.391Z,93817.55
2019-05-26T13:49:06.039Z,93821.95
2019-05-26T13:51:34.713Z,93824.58
2019-05-26T13:54:03.511Z,93823.83
2019-05-26T13:56:32.222Z,93818.59
2019-05-26T13:59:00.971Z,93821.18
2019-05-26T14:01:29.627Z,93818.92
2019-05-26T14:03:58.381Z,93820.13
2019-05-26T14:06:27.214Z,93823.92
2019-05-26T14:08:55.912Z,93824.09
2019-05-26T14:11:24.534Z,93824.00
2019-05-26T14:13:53.362Z,93834.28
2019-05-26T14:16:23.294Z,93831.17
2019-05-26T14:18:53.801Z,93829.28
2019-05-26T14:21:22.463Z,93827.74
2019-05-26T14:23:51.092Z,93823.95
2019-05-26T14:26:19.791Z,93821.67
2019-05-26T14:28:48.501Z,93826.27
2019-05-26T14:31:17.196Z,93827.84
2019-05-26T14:33:45.833Z,93821.73
2019-05-26T14:36:14.661Z,93829.88
2019-05-26T14:38:43.873Z,93825.47
2019-05-26T14:41:13.367Z,93828.73
2019-05-26T14:43:42.020Z,93821.83
2019-05-26T14:46:10.736Z,93827.91
2019-05-26T14:48:39.428Z,93826.74
2019-05-26T14:51:08.884Z,93835.03
2019-05-26T14:53:37.531Z,93834.50
2019-05-26T14:56:06.406Z,93840.80
2019-05-26T14:58:35.071Z,93837.06
2019-05-26T15:01:03.780Z,93850.29
2019-05-26T15:03:32.442Z,93843.51
2019-05-26T15:06:05.982Z,93834.59
2019-05-26T15:08:31.617Z,93843.45
2019-05-26T15:11:00.236Z,93852.80
2019-05-26T15:13:28.950Z,93852.13
2019-05-26T15:16:09.398Z,93854.71
2019-05-26T15:18:28.002Z,93853.23
2019-05-26T15:20:56.651Z,93859.00
2019-05-26T15:23:25.342Z,93862.99
2019-05-26T15:25:54.031Z,93865.51
2019-05-26T15:28:22.707Z,93866.86
2019-05-26T15:30:51.379Z,93869.83
2019-05-26T15:33:21.548Z,93865.62
2019-05-26T15:35:52.248Z,93862.70
2019-05-26T15:38:20.607Z,93859.24
2019-05-26T15:40:49.390Z,93851.30
2019-05-26T15:43:17.998Z,93853.80
2019-05-26T15:45:46.638Z,93851.23
2019-05-26T15:48:15.357Z,93851.47
2019-05-26T15:50:44.039Z,93855.08
2019-05-26T15:53:12.734Z,93851.41
2019-05-26T15:55:41.925Z,93855.16
2019-05-26T15:58:10.658Z,93854.62
2019-05-26T16:00:39.383Z,93852.64
2019-05-26T16:03:08.062Z,93855.41
2019-05-26T16:05:38.476Z,93865.95
2019-05-26T16:08:07.157Z,93865.84
2019-05-26T16:10:35.885Z,93866.45
2019-05-26T16:13:04.506Z,93863.42
2019-05-26T16:15:33.165Z,93860.86
2019-05-26T16:18:01.954Z,93864.93
2019-05-26T16:20:30.617Z,93861.62
2019-05-26T16:22:59.483Z,93860.84
2019-05-26T16:25:28.114Z,93861.99
2019-05-26T16:27:56.868Z,93862.41
2019-05-26T16:30:25.920Z,93861.72
2019-05-26T16:32:54.661Z,93854.67
2019-05-26T16:35:23.381Z,93859.02
2019-05-26T16:37:52.132Z,93859.75
2019-05-26T16:40:20.864Z,93861.08
2019-05-26T16:42:49.522Z,93859.23
2019-05-26T16:45:19.217Z,93855.02
2019-05-26T16:47:48.068Z,93856.59
2019-05-26T16:50:16.893Z,93858.29
2019-05-26T16:52:45.517Z,93860.90
2019-05-26T16:55:14.380Z,93860.02
2019-05-26T16:57:43.103Z,93855.69
2019-05-26T17:00:11.973Z,93853.86
2019-05-26T17:02:40.590Z,93860.55
2019-05-26T17:05:09.435Z,93858.55
2019-05-26T17:07:38.048Z,93858.41
2019-05-26T17:10:09.634Z,93869.02
2019-05-26T17:12:38.273Z,93868.69
2019-05-26T17:15:08.298Z,93870.02
2019-05-26T17:17:36.927Z,93867.61
2019-05-26T17:20:09.678Z,93869.20
2019-05-26T17:22:38.502Z,93873.38
2019-05-26T17:25:07.649Z,93873.38
2019-05-26T17:27:38.294Z,93880.55
2019-05-26T17:30:07.914Z,93883.72
2019-05-26T17:32:36.696Z,93877.53
2019-05-26T17:35:06.643Z,93884.06
2019-05-26T17:37:35.365Z,93883.58
2019-05-26T17:40:06.723Z,93889.14
2019-05-26T17:42:35.461Z,93886.78
2019-05-26T17:45:07.615Z,93881.20
2019-05-26T17:47:36.322Z,93877.89
2019-05-26T17:50:09.391Z,93881.17
2019-05-26T17:52:38.210Z,93884.91
2019-05-26T17:55:08.710Z,93882.72
2019-05-26T17:57:37.411Z,93883.08
2019-05-26T18:00:09.756Z,93883.08
2019-05-26T18:02:38.508Z,93887.54
2019-05-26T18:05:07.518Z,93888.10
2019-05-26T18:07:36.298Z,93892.42
2019-05-26T18:10:09.041Z,93893.94
2019-05-26T18:12:38.039Z,93889.34
2019-05-26T18:15:09.677Z,93895.59
2019-05-26T18:17:46.883Z,93898.92
2019-05-26T18:20:08.939Z,93895.52
2019-05-26T18:22:39.659Z,93896.81
2019-05-26T18:25:09.252Z,93899.05
2019-05-26T18:27:42.825Z,93893.82
2019-05-26T18:30:12.044Z,93892.76
2019-05-26T18:32:40.707Z,93893.86
2019-05-26T18:35:09.940Z,93888.89
2019-05-26T18:37:40.024Z,93892.91
2019-05-26T18:40:09.398Z,93894.69
2019-05-26T18:42:38.113Z,93895.04
2019-05-26T18:45:08.552Z,93909.02
2019-05-26T18:47:38.933Z,93916.30
2019-05-26T18:50:09.851Z,93916.91
2019-05-26T18:52:41.063Z,93918.78
2019-05-26T18:55:10.445Z,93918.70
2019-05-26T18:57:44.331Z,93923.55
2019-05-26T19:00:14.432Z,93918.72
2019-05-26T19:02:43.339Z,93924.13
2019-05-26T19:05:12.662Z,93921.75
2019-05-26T19:07:41.524Z,93917.67
2019-05-26T19:10:10.805Z,93912.66
2019-05-26T19:12:39.570Z,93918.98
2019-05-26T19:15:09.238Z,93928.44
2019-05-26T19:17:37.876Z,93929.09
2019-05-26T19:20:16.299Z,93926.51
2019-05-26T19:22:38.498Z,93926.79
2019-05-26T19:25:07.268Z,93933.91
2019-05-26T19:27:36.047Z,93932.16
2019-05-26T19:30:09.009Z,93936.11
2019-05-26T19:32:37.842Z,93935.87
2019-05-26T19:35:07.737Z,93933.03
2019-05-26T19:37:36.523Z,93938.56
2019-05-26T19:40:08.776Z,93950.38
2019-05-26T19:42:40.949Z,93953.28
2019-05-26T19:45:11.570Z,93958.55
2019-05-26T19:47:40.190Z,93955.39
2019-05-26T19:50:09.992Z,93959.34
2019-05-26T19:52:38.865Z,93956.76
2019-05-26T19:55:10.860Z,93962.23
2019-05-26T19:57:39.481Z,93961.23
2019-05-26T20:00:13.723Z,93962.02
2019-05-26T20:02:42.472Z,93967.56
2019-05-26T20:05:11.675Z,93975.19
2019-05-26T20:07:40.405Z,93981.23
2019-05-26T20:10:09.373Z,93982.81
2019-05-26T20:12:37.996Z,93982.81
2019-05-26T20:15:07.514Z,93982.01
2019-05-26T20:17:36.207Z,93986.48
2019-05-26T20:20:07.396Z,93984.38
2019-05-26T20:22:36.242Z,93983.05
2019-05-26T20:25:07.554Z,93974.16
2019-05-26T20:27:36.174Z,93974.10
2019-05-26T20:30:06.476Z,93960.98
2019-05-26T20:32:36.885Z,93961.23
2019-05-26T20:35:08.478Z,93959.89
2019-05-26T20:37:37.416Z,93965.92
2019-05-26T20:40:07.463Z,93968.28
2019-05-26T20:42:36.112Z,93963.52
2019-05-26T20:45:06.987Z,93970.59
2019-05-26T20:47:35.629Z,93966.66
2019-05-26T20:50:06.311Z,93963.25
2019-05-26T20:52:36.713Z,93962.75
2019-05-26T20:55:09.766Z,93966.41
2019-05-26T20:57:38.466Z,93963.25
2019-05-26T21:00:13.869Z,93963.20
2019-05-26T21:02:43.665Z,93964.96
2019-05-26T21:05:12.424Z,93967.06
2019-05-26T21:07:41.193Z,93969.95
2019-05-26T21:10:10.721Z,93970.55
2019-05-26T21:12:39.403Z,93967.39
2019-05-26T21:15:09.525Z,93972.66
2019-05-26T21:17:38.258Z,93970.27
2019-05-26T21:20:08.465Z,93977.56
2019-05-26T21:22:37.238Z,93975.98
2019-05-26T21:25:06.680Z,93979.73
2019-05-26T21:27:35.381Z,93976.50
2019-05-26T21:30:08.209Z,93974.13
2019-05-26T21:32:37.002Z,93974.36
2019-05-26T21:35:07.014Z,93965.88
2019-05-26T21:37:35.820Z,93959.88
2019-05-26T21:40:06.105Z,93956.46
2019-05-26T21:42:34.813Z,93963.98
2019-05-26T21:45:04.924Z,93965.27
2019-05-26T21:47:33.716Z,93957.93
2019-05-26T21:50:02.411Z,93953.72
2019-05-26T21:52:31.102Z,93958.30
2019-05-26T21:54:59.797Z,93964.77
2019-05-26T21:57:28.644Z,93966.89
2019-05-26T21:59:57.259Z,93967.14
2019-05-26T22:02:25.882Z,93958.80
2019-05-26T22:04:54.580Z,93954.34
2019-05-26T22:07:23.194Z,93949.09
2019-05-26T22:09:51.862Z,93955.11
2019-05-26T22:12:20.531Z,93950.95
2019-05-26T22:14:49.211Z,93958.00
2019-05-26T22:17:17.832Z,93959.63
2019-05-26T22:19:46.466Z,93959.88
2019-05-26T22:22:15.135Z,93959.63
2019-05-26T22:24:44.070Z,93959.02
2019-05-26T22:27:12.727Z,93961.39
2019-05-26T22:29:41.403Z,93960.28
2019-05-26T22:32:10.112Z,93964.25
2019-05-26T22:34:38.731Z,93965.48
2019-05-26T22:37:07.413Z,93963.09
2019-05-26T22:39:37.326Z,93962.79
2019-05-26T22:42:06.030Z,93966.57
2019-05-26T22:44:34.648Z,93967.53
2019-05-26T22:47:03.359Z,93960.83
2019-05-26T22:49:31.978Z,93963.63
2019-05-26T22:52:00.655Z,93964.13
2019-05-26T22:54:29.324Z,93963.96
2019-05-26T22:56:58.074Z,93955.00
2019-05-26T22:59:26.726Z,93953.34
2019-05-26T23:01:55.386Z,93956.92
2019-05-26T23:04:26.104Z,93954.09
2019-05-26T23:06:54.723Z,93958.14
2019-05-26T23:09:23.418Z,93955.61
2019-05-26T23:11:52.063Z,93958.47
2019-05-26T23:14:20.709Z,93953.89
2019-05-26T23:16:49.387Z,93953.34
2019-05-26T23:19:19.898Z,93953.75
2019-05-26T23:21:48.424Z,93956.78
2019-05-26T23:24:18.452Z,93950.59
2019-05-26T23:26:47.113Z,93950.80
2019-05-26T23:29:15.741Z,93940.48
2019-05-26T23:31:44.470Z,93933.47
2019-05-26T23:34:13.117Z,93929.67
2019-05-26T23:36:41.798Z,93939.48
2019-05-26T23:39:10.524Z,93938.91
2019-05-26T23:41:39.216Z,93938.97
2019-05-26T23:44:08.013Z,93937.20
2019-05-26T23:46:36.697Z,93927.45
2019-05-26T23:49:05.451Z,93927.12
2019-05-26T23:51:34.116Z,93924.75
2019-05-26T23:54:02.887Z,93916.02
2019-05-26T23:56:31.558Z,93918.05
2019-05-26T23:59:00.191Z,93907.58
